This is the latest recevied weather packets stored in our database for station/object KC3JUG-13. If no packets are shown the sender has not sent any weather packets the latest 1 day(s).
| Time | Temp. | Humidity | Pressure | Rain* | Wind** | Luminosity | Snow |
|---|---|---|---|---|---|---|---|
| 1778100036 | 17.78° C | 89% | 1008.7 hPa | 0 mm | - | - | - |
| 1778099256 | 17.78° C | 89% | 1008.6 hPa | 0 mm | - | - | - |
| 1778098476 | 17.78° C | 89% | 1008.5 hPa | 0 mm | - | - | - |
| 1778097696 | 17.78° C | 90% | 1008.7 hPa | 0 mm | - | - | - |
| 1778096916 | 17.78° C | 89% | 1008.7 hPa | 0 mm | - | - | - |
| 1778095356 | 17.22° C | 94% | 1009 hPa | 0 mm | - | - | - |
| 1778093796 | 16.11° C | 97% | 1008.9 hPa | 0 mm | - | - | - |
| 1778089896 | 15° C | 96% | 1009.6 hPa | 0 mm | - | - | - |
| 1778089116 | 15° C | 96% | 1009.5 hPa | 0 mm | - | - | - |
| 1778085996 | 15° C | 96% | 1009.6 hPa | 0.51 mm | - | - | - |
| 1778067277 | 16.67° C | 83% | 1010.2 hPa | 0 mm | - | - | - |
| 1778066497 | 16.67° C | 83% | 1010 hPa | 0 mm | - | - | - |
| 1778065717 | 16.67° C | 83% | 1009.8 hPa | 0 mm | - | - | - |
| 1778064937 | 16.67° C | 83% | 1009.8 hPa | 0 mm | - | - | - |
| 1778064157 | 16.67° C | 83% | 1009.8 hPa | 0 mm | - | - | - |
| 1778063377 | 16.67° C | 82% | 1009.7 hPa | 0 mm | - | - | - |
| 1778062597 | 16.67° C | 82% | 1009.6 hPa | 0 mm | - | - | - |
| 1778061817 | 17.22° C | 81% | 1009.5 hPa | 0 mm | - | - | - |
| 1778061037 | 17.22° C | 81% | 1009.5 hPa | 0 mm | - | - | - |
| 1778059477 | 17.22° C | 80% | 1009.7 hPa | 0 mm | - | - | - |
| 1778058697 | 17.78° C | 79% | 1009.8 hPa | 0 mm | - | - | - |
| 1778057917 | 17.78° C | 79% | 1009.9 hPa | 0 mm | - | - | - |
| 1778057137 | 17.78° C | 78% | 1009.9 hPa | 0 mm | - | - | - |
| 1778056357 | 17.78° C | 77% | 1010.1 hPa | 0 mm | - | - | - |
| 1778055577 | 17.78° C | 76% | 1010.1 hPa | 0 mm | - | - | - |
* Rain latest hour (hover to see other rain measurements)
** Current wind speed in m/s (hover to see current wind gust speed)